sensor_id;sensor_type;location;lat;lon;timestamp;pressure;altitude;pressure_sealevel;temperature;humidity
41515;BME280;27247;48.020;16.720;2023-02-22T00:00:22;99962.31;;;8.32;88.58
41515;BME280;27247;48.020;16.720;2023-02-22T00:04:38;99966.88;;;8.22;88.80
41515;BME280;27247;48.020;16.720;2023-02-22T00:08:48;99962.66;;;8.12;89.48
41515;BME280;27247;48.020;16.720;2023-02-22T00:12:59;99959.78;;;8.05;89.52
41515;BME280;27247;48.020;16.720;2023-02-22T00:27:22;99966.84;;;7.71;88.45
41515;BME280;27247;48.020;16.720;2023-02-22T00:31:36;99965.09;;;7.61;89.64
41515;BME280;27247;48.020;16.720;2023-02-22T00:35:47;99963.97;;;7.64;89.95
41515;BME280;27247;48.020;16.720;2023-02-22T00:39:57;99971.13;;;7.46;90.46
41515;BME280;27247;48.020;16.720;2023-02-22T00:44:08;99963.91;;;7.38;90.22
41515;BME280;27247;48.020;16.720;2023-02-22T00:48:18;99965.09;;;7.26;91.09
41515;BME280;27247;48.020;16.720;2023-02-22T00:52:29;99959.03;;;7.33;90.44
41515;BME280;27247;48.020;16.720;2023-02-22T00:56:39;99959.28;;;7.40;91.21
41515;BME280;27247;48.020;16.720;2023-02-22T01:00:50;99960.84;;;7.33;91.50
41515;BME280;27247;48.020;16.720;2023-02-22T01:05:00;99963.38;;;7.34;91.89
41515;BME280;27247;48.020;16.720;2023-02-22T01:09:10;99961.84;;;7.32;92.67
41515;BME280;27247;48.020;16.720;2023-02-22T01:13:21;99953.19;;;7.30;92.81
41515;BME280;27247;48.020;16.720;2023-02-22T01:17:32;99952.22;;;7.31;93.29
41515;BME280;27247;48.020;16.720;2023-02-22T01:21:42;99951.94;;;7.24;92.72
41515;BME280;27247;48.020;16.720;2023-02-22T01:25:52;99945.03;;;7.14;92.71
41515;BME280;27247;48.020;16.720;2023-02-22T01:30:04;99952.22;;;7.03;91.97
41515;BME280;27247;48.020;16.720;2023-02-22T01:34:18;99943.63;;;6.92;93.43
41515;BME280;27247;48.020;16.720;2023-02-22T01:38:29;99942.41;;;6.86;93.79
41515;BME280;27247;48.020;16.720;2023-02-22T01:42:39;99947.44;;;6.89;93.86
41515;BME280;27247;48.020;16.720;2023-02-22T01:46:50;99938.19;;;6.93;94.98
41515;BME280;27247;48.020;16.720;2023-02-22T01:51:15;99938.94;;;7.03;95.75
41515;BME280;27247;48.020;16.720;2023-02-22T01:55:27;99934.84;;;7.09;94.53
41515;BME280;27247;48.020;16.720;2023-02-22T01:59:43;99931.97;;;7.02;92.68
41515;BME280;27247;48.020;16.720;2023-02-22T02:03:56;99935.66;;;6.92;92.58
41515;BME280;27247;48.020;16.720;2023-02-22T02:08:24;99930.81;;;6.87;92.86
41515;BME280;27247;48.020;16.720;2023-02-22T02:12:36;99933.81;;;6.75;93.30
41515;BME280;27247;48.020;16.720;2023-02-22T02:16:48;99921.00;;;6.70;94.13
41515;BME280;27247;48.020;16.720;2023-02-22T02:39:18;99916.81;;;6.67;93.68
41515;BME280;27247;48.020;16.720;2023-02-22T02:47:55;99908.84;;;6.67;95.17
41515;BME280;27247;48.020;16.720;2023-02-22T02:52:09;99910.91;;;6.73;95.50
41515;BME280;27247;48.020;16.720;2023-02-22T02:56:22;99915.94;;;6.49;92.10
41515;BME280;27247;48.020;16.720;2023-02-22T03:00:35;99919.88;;;6.45;90.99
41515;BME280;27247;48.020;16.720;2023-02-22T03:09:25;99918.19;;;6.44;93.68
41515;BME280;27247;48.020;16.720;2023-02-22T03:18:24;99926.06;;;6.63;94.42
41515;BME280;27247;48.020;16.720;2023-02-22T03:22:46;99933.63;;;6.58;93.48
41515;BME280;27247;48.020;16.720;2023-02-22T03:27:07;99932.06;;;6.65;94.82
41515;BME280;27247;48.020;16.720;2023-02-22T03:31:24;99929.66;;;6.72;95.78
41515;BME280;27247;48.020;16.720;2023-02-22T03:35:43;99926.25;;;6.80;95.54
41515;BME280;27247;48.020;16.720;2023-02-22T03:39:59;99928.06;;;6.79;94.94
41515;BME280;27247;48.020;16.720;2023-02-22T03:44:14;99929.59;;;6.99;94.97
41515;BME280;27247;48.020;16.720;2023-02-22T03:48:36;99936.22;;;6.95;95.35
41515;BME280;27247;48.020;16.720;2023-02-22T03:52:48;99934.84;;;7.09;95.30
41515;BME280;27247;48.020;16.720;2023-02-22T03:57:05;99929.00;;;7.23;94.43
41515;BME280;27247;48.020;16.720;2023-02-22T04:01:17;99933.25;;;7.16;94.40
41515;BME280;27247;48.020;16.720;2023-02-22T04:05:29;99945.09;;;7.04;95.62
41515;BME280;27247;48.020;16.720;2023-02-22T04:09:39;99932.66;;;7.04;96.53
41515;BME280;27247;48.020;16.720;2023-02-22T04:13:50;99937.34;;;7.11;96.84
41515;BME280;27247;48.020;16.720;2023-02-22T04:18:01;99930.91;;;7.13;96.95
41515;BME280;27247;48.020;16.720;2023-02-22T04:22:11;99931.13;;;7.20;97.29
41515;BME280;27247;48.020;16.720;2023-02-22T04:26:21;99933.28;;;7.34;96.15
41515;BME280;27247;48.020;16.720;2023-02-22T04:30:32;99920.81;;;7.52;96.15
41515;BME280;27247;48.020;16.720;2023-02-22T04:34:42;99915.59;;;7.86;94.96
41515;BME280;27247;48.020;16.720;2023-02-22T04:38:53;99909.97;;;8.23;92.16
41515;BME280;27247;48.020;16.720;2023-02-22T04:43:04;99904.63;;;8.41;90.87
41515;BME280;27247;48.020;16.720;2023-02-22T04:47:14;99890.34;;;8.50;90.15
41515;BME280;27247;48.020;16.720;2023-02-22T04:51:25;99892.22;;;8.58;88.73
41515;BME280;27247;48.020;16.720;2023-02-22T04:55:35;99894.34;;;8.54;88.51
41515;BME280;27247;48.020;16.720;2023-02-22T04:59:45;99905.31;;;8.43;89.02
41515;BME280;27247;48.020;16.720;2023-02-22T05:03:56;99914.81;;;8.28;89.91
41515;BME280;27247;48.020;16.720;2023-02-22T05:08:06;99912.00;;;8.29;90.87
41515;BME280;27247;48.020;16.720;2023-02-22T05:12:16;99916.34;;;8.30;90.17
41515;BME280;27247;48.020;16.720;2023-02-22T05:16:27;99907.00;;;8.26;90.13
41515;BME280;27247;48.020;16.720;2023-02-22T05:20:37;99917.09;;;8.15;91.49
41515;BME280;27247;48.020;16.720;2023-02-22T05:24:47;99928.25;;;8.18;91.53
41515;BME280;27247;48.020;16.720;2023-02-22T05:28:58;99922.59;;;8.21;91.70
41515;BME280;27247;48.020;16.720;2023-02-22T05:33:09;99919.94;;;8.21;92.21
41515;BME280;27247;48.020;16.720;2023-02-22T05:37:19;99919.56;;;8.34;91.76
41515;BME280;27247;48.020;16.720;2023-02-22T05:41:29;99923.59;;;8.38;91.35
41515;BME280;27247;48.020;16.720;2023-02-22T05:45:40;99929.59;;;8.40;91.17
41515;BME280;27247;48.020;16.720;2023-02-22T05:49:51;99937.63;;;8.48;91.03
41515;BME280;27247;48.020;16.720;2023-02-22T05:54:01;99936.63;;;8.49;91.75
41515;BME280;27247;48.020;16.720;2023-02-22T05:58:11;99935.59;;;8.42;92.39
41515;BME280;27247;48.020;16.720;2023-02-22T06:02:22;99946.56;;;8.39;92.73
41515;BME280;27247;48.020;16.720;2023-02-22T06:06:32;99949.69;;;8.35;92.94
41515;BME280;27247;48.020;16.720;2023-02-22T06:10:43;99948.44;;;8.29;92.87
41515;BME280;27247;48.020;16.720;2023-02-22T06:14:53;99953.09;;;8.27;93.51
41515;BME280;27247;48.020;16.720;2023-02-22T06:19:04;99966.09;;;8.30;93.73
41515;BME280;27247;48.020;16.720;2023-02-22T06:23:14;99954.59;;;8.29;93.48
41515;BME280;27247;48.020;16.720;2023-02-22T06:27:24;99967.63;;;8.32;93.66
41515;BME280;27247;48.020;16.720;2023-02-22T06:31:35;99964.56;;;8.45;93.12
41515;BME280;27247;48.020;16.720;2023-02-22T06:35:45;99954.63;;;8.55;92.87
41515;BME280;27247;48.020;16.720;2023-02-22T06:39:56;99965.59;;;8.52;93.18
41515;BME280;27247;48.020;16.720;2023-02-22T06:44:07;99971.44;;;8.56;93.33
41515;BME280;27247;48.020;16.720;2023-02-22T06:48:17;99965.66;;;8.69;92.46
41515;BME280;27247;48.020;16.720;2023-02-22T06:52:28;99970.31;;;8.67;92.50
41515;BME280;27247;48.020;16.720;2023-02-22T06:56:38;99970.97;;;8.60;93.32
41515;BME280;27247;48.020;16.720;2023-02-22T07:00:49;99975.81;;;8.65;93.39
41515;BME280;27247;48.020;16.720;2023-02-22T07:04:59;99972.84;;;8.76;93.68
41515;BME280;27247;48.020;16.720;2023-02-22T07:09:09;99981.69;;;8.77;95.03
41515;BME280;27247;48.020;16.720;2023-02-22T07:13:22;99973.00;;;8.75;96.13
41515;BME280;27247;48.020;16.720;2023-02-22T07:17:32;99980.19;;;8.74;96.28
41515;BME280;27247;48.020;16.720;2023-02-22T07:21:42;99976.56;;;8.91;96.25
41515;BME280;27247;48.020;16.720;2023-02-22T07:25:53;99982.75;;;8.92;97.30
41515;BME280;27247;48.020;16.720;2023-02-22T07:30:05;99983.06;;;8.89;97.66
41515;BME280;27247;48.020;16.720;2023-02-22T07:34:16;99974.72;;;8.84;98.22
41515;BME280;27247;48.020;16.720;2023-02-22T07:38:26;99971.91;;;8.93;98.15
41515;BME280;27247;48.020;16.720;2023-02-22T07:47:45;99969.81;;;9.13;98.85
41515;BME280;27247;48.020;16.720;2023-02-22T07:51:56;99969.50;;;9.24;99.01
41515;BME280;27247;48.020;16.720;2023-02-22T07:56:06;99965.38;;;9.38;97.47
41515;BME280;27247;48.020;16.720;2023-02-22T08:00:29;99968.06;;;9.46;96.85
41515;BME280;27247;48.020;16.720;2023-02-22T08:04:40;99965.41;;;9.63;96.23
41515;BME280;27247;48.020;16.720;2023-02-22T08:08:51;99959.41;;;9.77;92.80
41515;BME280;27247;48.020;16.720;2023-02-22T08:13:02;99965.38;;;9.95;90.69
41515;BME280;27247;48.020;16.720;2023-02-22T08:17:13;99962.38;;;10.06;89.69
41515;BME280;27247;48.020;16.720;2023-02-22T08:21:23;99964.38;;;10.20;88.05
41515;BME280;27247;48.020;16.720;2023-02-22T08:25:34;99974.91;;;9.98;88.77
41515;BME280;27247;48.020;16.720;2023-02-22T08:29:46;99967.41;;;9.69;91.78
41515;BME280;27247;48.020;16.720;2023-02-22T08:33:56;99970.72;;;9.54;93.29
41515;BME280;27247;48.020;16.720;2023-02-22T08:38:15;99963.41;;;9.56;91.55
41515;BME280;27247;48.020;16.720;2023-02-22T08:42:26;99957.72;;;9.68;91.20
41515;BME280;27247;48.020;16.720;2023-02-22T08:46:36;99961.41;;;9.83;88.26
41515;BME280;27247;48.020;16.720;2023-02-22T08:50:48;99968.91;;;9.87;88.61
41515;BME280;27247;48.020;16.720;2023-02-22T08:54:59;99973.41;;;9.95;89.77
41515;BME280;27247;48.020;16.720;2023-02-22T08:59:09;99965.88;;;10.15;87.99
41515;BME280;27247;48.020;16.720;2023-02-22T09:03:20;99973.22;;;10.29;85.56
41515;BME280;27247;48.020;16.720;2023-02-22T09:07:30;99960.84;;;10.44;84.05
41515;BME280;27247;48.020;16.720;2023-02-22T09:11:42;99967.34;;;10.50;83.45
41515;BME280;27247;48.020;16.720;2023-02-22T09:15:52;99971.78;;;10.66;83.18
41515;BME280;27247;48.020;16.720;2023-02-22T09:20:04;99963.91;;;10.72;81.93
41515;BME280;27247;48.020;16.720;2023-02-22T09:24:15;99968.88;;;10.83;80.15
41515;BME280;27247;48.020;16.720;2023-02-22T09:28:26;99964.47;;;10.99;79.52
41515;BME280;27247;48.020;16.720;2023-02-22T09:32:36;99971.59;;;11.06;78.76
41515;BME280;27247;48.020;16.720;2023-02-22T09:36:48;99962.19;;;11.18;78.25
41515;BME280;27247;48.020;16.720;2023-02-22T09:41:13;99960.81;;;11.23;77.99
41515;BME280;27247;48.020;16.720;2023-02-22T09:45:33;99949.34;;;11.37;76.84
41515;BME280;27247;48.020;16.720;2023-02-22T09:54:05;99951.91;;;11.76;76.63
41515;BME280;27247;48.020;16.720;2023-02-22T09:58:26;99940.09;;;11.93;75.57
41515;BME280;27247;48.020;16.720;2023-02-22T10:07:42;99938.25;;;12.08;71.92
41515;BME280;27247;48.020;16.720;2023-02-22T10:12:07;99934.81;;;12.00;70.50
41515;BME280;27247;48.020;16.720;2023-02-22T10:21:01;99921.97;;;11.95;69.35
41515;BME280;27247;48.020;16.720;2023-02-22T10:25:20;99918.22;;;12.04;67.94
41515;BME280;27247;48.020;16.720;2023-02-22T10:33:47;99901.38;;;11.96;69.22
41515;BME280;27247;48.020;16.720;2023-02-22T10:38:08;99900.63;;;11.87;70.94
41515;BME280;27247;48.020;16.720;2023-02-22T10:42:24;99896.41;;;12.07;72.58
41515;BME280;27247;48.020;16.720;2023-02-22T10:46:35;99895.88;;;12.12;68.94
41515;BME280;27247;48.020;16.720;2023-02-22T10:50:50;99896.97;;;12.18;69.70
41515;BME280;27247;48.020;16.720;2023-02-22T10:55:03;99897.44;;;12.21;68.09
41515;BME280;27247;48.020;16.720;2023-02-22T10:59:48;99893.44;;;12.46;67.72
41515;BME280;27247;48.020;16.720;2023-02-22T11:04:07;99894.38;;;12.68;65.98
41515;BME280;27247;48.020;16.720;2023-02-22T11:12:30;99885.31;;;13.05;67.19
41515;BME280;27247;48.020;16.720;2023-02-22T11:16:46;99878.38;;;13.54;65.78
41515;BME280;27247;48.020;16.720;2023-02-22T11:21:07;99873.63;;;14.12;63.06
41515;BME280;27247;48.020;16.720;2023-02-22T11:25:25;99861.44;;;14.44;61.96
41515;BME280;27247;48.020;16.720;2023-02-22T11:29:37;99860.22;;;14.12;61.42
41515;BME280;27247;48.020;16.720;2023-02-22T11:33:54;99861.16;;;13.69;61.52
41515;BME280;27247;48.020;16.720;2023-02-22T11:38:24;99853.03;;;14.25;61.19
41515;BME280;27247;48.020;16.720;2023-02-22T11:42:35;99847.22;;;14.56;60.30
41515;BME280;27247;48.020;16.720;2023-02-22T11:46:46;99835.19;;;14.52;60.40
41515;BME280;27247;48.020;16.720;2023-02-22T11:55:31;99828.34;;;15.50;59.14
41515;BME280;27247;48.020;16.720;2023-02-22T12:09:37;99822.59;;;15.86;56.79
41515;BME280;27247;48.020;16.720;2023-02-22T12:14:08;99816.50;;;16.17;57.47
41515;BME280;27247;48.020;16.720;2023-02-22T12:22:46;99808.38;;;16.82;56.00
41515;BME280;27247;48.020;16.720;2023-02-22T12:27:21;99805.75;;;16.55;57.70
41515;BME280;27247;48.020;16.720;2023-02-22T12:31:49;99791.81;;;17.03;55.64
41515;BME280;27247;48.020;16.720;2023-02-22T12:36:01;99793.09;;;17.50;55.10
41515;BME280;27247;48.020;16.720;2023-02-22T12:40:18;99785.78;;;17.82;54.54
41515;BME280;27247;48.020;16.720;2023-02-22T12:44:35;99774.59;;;17.29;54.78
41515;BME280;27247;48.020;16.720;2023-02-22T12:49:47;99787.44;;;16.64;58.25
41515;BME280;27247;48.020;16.720;2023-02-22T12:53:34;99768.84;;;16.94;55.33
41515;BME280;27247;48.020;16.720;2023-02-22T13:02:53;99759.66;;;16.19;56.44
41515;BME280;27247;48.020;16.720;2023-02-22T13:07:16;99757.09;;;15.53;58.75
41515;BME280;27247;48.020;16.720;2023-02-22T13:11:32;99762.28;;;15.15;58.64
41515;BME280;27247;48.020;16.720;2023-02-22T13:29:24;99752.44;;;13.93;62.68
41515;BME280;27247;48.020;16.720;2023-02-22T13:34:10;99754.88;;;13.88;63.13
41515;BME280;27247;48.020;16.720;2023-02-22T13:52:20;99740.16;;;13.78;63.89
41515;BME280;27247;48.020;16.720;2023-02-22T13:56:33;99744.72;;;13.84;64.35
41515;BME280;27247;48.020;16.720;2023-02-22T14:00:53;99730.28;;;13.85;64.20
41515;BME280;27247;48.020;16.720;2023-02-22T14:09:56;99722.03;;;13.93;64.26
41515;BME280;27247;48.020;16.720;2023-02-22T14:14:09;99724.31;;;13.89;64.53
41515;BME280;27247;48.020;16.720;2023-02-22T14:18:20;99723.72;;;14.00;64.74
41515;BME280;27247;48.020;16.720;2023-02-22T14:22:31;99724.34;;;13.96;63.33
41515;BME280;27247;48.020;16.720;2023-02-22T14:26:54;99716.25;;;13.89;65.01
41515;BME280;27247;48.020;16.720;2023-02-22T14:31:08;99719.56;;;13.91;65.36
41515;BME280;27247;48.020;16.720;2023-02-22T14:35:20;99710.25;;;13.87;65.37
41515;BME280;27247;48.020;16.720;2023-02-22T14:39:38;99707.59;;;13.94;66.08
41515;BME280;27247;48.020;16.720;2023-02-22T14:43:50;99713.72;;;13.81;66.03
41515;BME280;27247;48.020;16.720;2023-02-22T14:52:26;99704.84;;;13.46;67.07
41515;BME280;27247;48.020;16.720;2023-02-22T15:00:51;99706.31;;;13.21;68.20
41515;BME280;27247;48.020;16.720;2023-02-22T15:05:03;99710.94;;;13.05;68.47
41515;BME280;27247;48.020;16.720;2023-02-22T15:13:32;99705.84;;;12.89;69.05
41515;BME280;27247;48.020;16.720;2023-02-22T15:17:44;99708.47;;;12.83;70.17
41515;BME280;27247;48.020;16.720;2023-02-22T15:21:57;99698.47;;;12.70;70.17
41515;BME280;27247;48.020;16.720;2023-02-22T15:26:23;99704.34;;;12.59;70.14
41515;BME280;27247;48.020;16.720;2023-02-22T15:30:34;99703.63;;;12.50;71.21
41515;BME280;27247;48.020;16.720;2023-02-22T15:34:45;99701.88;;;12.42;71.67
41515;BME280;27247;48.020;16.720;2023-02-22T15:38:55;99702.66;;;12.36;72.63
41515;BME280;27247;48.020;16.720;2023-02-22T15:43:06;99697.59;;;12.27;72.62
41515;BME280;27247;48.020;16.720;2023-02-22T15:47:25;99708.44;;;12.19;72.09
41515;BME280;27247;48.020;16.720;2023-02-22T15:51:39;99706.06;;;12.09;72.46
41515;BME280;27247;48.020;16.720;2023-02-22T15:55:56;99705.44;;;11.92;73.42
41515;BME280;27247;48.020;16.720;2023-02-22T16:00:18;99712.91;;;11.67;74.37
41515;BME280;27247;48.020;16.720;2023-02-22T16:04:30;99703.78;;;11.47;75.38
41515;BME280;27247;48.020;16.720;2023-02-22T16:08:50;99706.34;;;11.26;76.23
41515;BME280;27247;48.020;16.720;2023-02-22T16:13:18;99704.72;;;11.02;77.27
41515;BME280;27247;48.020;16.720;2023-02-22T16:17:38;99703.59;;;10.81;78.17
41515;BME280;27247;48.020;16.720;2023-02-22T16:21:55;99710.19;;;10.71;78.62
41515;BME280;27247;48.020;16.720;2023-02-22T16:26:32;99710.31;;;10.54;79.17
41515;BME280;27247;48.020;16.720;2023-02-22T16:30:42;99715.44;;;10.41;79.90
41515;BME280;27247;48.020;16.720;2023-02-22T16:34:53;99719.34;;;10.22;80.55
41515;BME280;27247;48.020;16.720;2023-02-22T16:39:06;99723.22;;;10.20;80.75
41515;BME280;27247;48.020;16.720;2023-02-22T16:43:20;99724.22;;;10.11;81.10
41515;BME280;27247;48.020;16.720;2023-02-22T16:47:31;99735.47;;;9.98;81.06
41515;BME280;27247;48.020;16.720;2023-02-22T16:51:45;99731.44;;;10.02;80.98
41515;BME280;27247;48.020;16.720;2023-02-22T16:56:01;99746.50;;;9.95;80.97
41515;BME280;27247;48.020;16.720;2023-02-22T17:00:21;99745.22;;;9.83;81.15
41515;BME280;27247;48.020;16.720;2023-02-22T17:04:40;99753.59;;;9.72;81.94
41515;BME280;27247;48.020;16.720;2023-02-22T17:08:53;99755.84;;;9.52;83.01
41515;BME280;27247;48.020;16.720;2023-02-22T17:13:05;99751.34;;;9.36;84.39
41515;BME280;27247;48.020;16.720;2023-02-22T17:17:18;99759.53;;;9.26;85.16
41515;BME280;27247;48.020;16.720;2023-02-22T17:21:30;99750.22;;;9.14;84.71
41515;BME280;27247;48.020;16.720;2023-02-22T17:25:51;99756.38;;;8.99;86.29
41515;BME280;27247;48.020;16.720;2023-02-22T17:30:05;99747.72;;;8.96;86.71
41515;BME280;27247;48.020;16.720;2023-02-22T17:34:25;99752.06;;;8.89;86.85
41515;BME280;27247;48.020;16.720;2023-02-22T17:38:37;99753.56;;;8.84;87.59
41515;BME280;27247;48.020;16.720;2023-02-22T17:42:51;99752.22;;;8.80;87.47
41515;BME280;27247;48.020;16.720;2023-02-22T17:47:04;99752.06;;;8.81;87.51
41515;BME280;27247;48.020;16.720;2023-02-22T17:51:15;99759.03;;;8.50;86.15
41515;BME280;27247;48.020;16.720;2023-02-22T17:55:26;99752.88;;;8.57;87.09
41515;BME280;27247;48.020;16.720;2023-02-22T17:59:38;99752.72;;;8.59;87.44
41515;BME280;27247;48.020;16.720;2023-02-22T18:03:50;99750.53;;;8.38;88.45
41515;BME280;27247;48.020;16.720;2023-02-22T18:08:01;99748.38;;;8.42;89.55
41515;BME280;27247;48.020;16.720;2023-02-22T18:12:11;99740.25;;;8.09;87.93
41515;BME280;27247;48.020;16.720;2023-02-22T18:16:23;99742.94;;;8.25;87.59
41515;BME280;27247;48.020;16.720;2023-02-22T18:20:35;99735.13;;;8.32;89.06
41515;BME280;27247;48.020;16.720;2023-02-22T18:24:49;99735.53;;;8.37;89.32
41515;BME280;27247;48.020;16.720;2023-02-22T18:29:06;99738.38;;;8.36;89.64
41515;BME280;27247;48.020;16.720;2023-02-22T18:33:21;99734.88;;;8.35;90.07
41515;BME280;27247;48.020;16.720;2023-02-22T18:37:33;99736.63;;;8.26;89.94
41515;BME280;27247;48.020;16.720;2023-02-22T18:41:44;99730.47;;;8.26;90.25
41515;BME280;27247;48.020;16.720;2023-02-22T18:50:19;99731.59;;;8.15;90.28
41515;BME280;27247;48.020;16.720;2023-02-22T18:54:31;99731.59;;;8.07;90.05
41515;BME280;27247;48.020;16.720;2023-02-22T18:58:41;99723.38;;;7.84;89.98
41515;BME280;27247;48.020;16.720;2023-02-22T19:02:55;99729.69;;;7.83;92.42
41515;BME280;27247;48.020;16.720;2023-02-22T19:07:08;99730.00;;;7.80;92.41
41515;BME280;27247;48.020;16.720;2023-02-22T19:11:22;99733.34;;;7.82;92.55
41515;BME280;27247;48.020;16.720;2023-02-22T19:15:36;99732.81;;;7.79;92.74
41515;BME280;27247;48.020;16.720;2023-02-22T19:19:47;99724.50;;;7.74;92.70
41515;BME280;27247;48.020;16.720;2023-02-22T19:23:59;99729.66;;;7.75;91.59
41515;BME280;27247;48.020;16.720;2023-02-22T19:28:10;99733.75;;;7.61;91.55
41515;BME280;27247;48.020;16.720;2023-02-22T19:32:22;99732.41;;;7.57;91.92
41515;BME280;27247;48.020;16.720;2023-02-22T19:36:33;99728.66;;;7.42;91.97
41515;BME280;27247;48.020;16.720;2023-02-22T19:40:44;99736.31;;;7.45;92.98
41515;BME280;27247;48.020;16.720;2023-02-22T19:44:55;99734.81;;;7.43;92.12
41515;BME280;27247;48.020;16.720;2023-02-22T19:49:06;99740.66;;;7.46;91.22
41515;BME280;27247;48.020;16.720;2023-02-22T19:53:17;99739.03;;;7.53;90.63
41515;BME280;27247;48.020;16.720;2023-02-22T19:57:28;99740.22;;;7.59;90.55
41515;BME280;27247;48.020;16.720;2023-02-22T20:01:40;99746.66;;;7.48;89.67
41515;BME280;27247;48.020;16.720;2023-02-22T20:05:56;99745.19;;;7.54;90.40
41515;BME280;27247;48.020;16.720;2023-02-22T20:10:08;99754.38;;;7.67;89.76
41515;BME280;27247;48.020;16.720;2023-02-22T20:14:23;99756.00;;;7.60;88.63
41515;BME280;27247;48.020;16.720;2023-02-22T20:18:34;99755.13;;;7.52;89.00
41515;BME280;27247;48.020;16.720;2023-02-22T20:22:46;99757.03;;;7.33;90.07
41515;BME280;27247;48.020;16.720;2023-02-22T20:26:57;99762.06;;;7.19;90.78
41515;BME280;27247;48.020;16.720;2023-02-22T20:31:09;99763.13;;;7.08;92.17
41515;BME280;27247;48.020;16.720;2023-02-22T20:35:29;99767.56;;;6.99;91.74
41515;BME280;27247;48.020;16.720;2023-02-22T20:39:41;99767.19;;;6.94;92.85
41515;BME280;27247;48.020;16.720;2023-02-22T20:43:55;99762.84;;;6.93;93.29
41515;BME280;27247;48.020;16.720;2023-02-22T20:48:06;99761.97;;;6.85;93.59
41515;BME280;27247;48.020;16.720;2023-02-22T20:52:17;99763.00;;;6.92;93.33
41515;BME280;27247;48.020;16.720;2023-02-22T20:56:31;99754.81;;;6.85;93.05
41515;BME280;27247;48.020;16.720;2023-02-22T21:00:42;99749.97;;;6.81;92.88
41515;BME280;27247;48.020;16.720;2023-02-22T21:04:53;99753.31;;;6.83;92.09
41515;BME280;27247;48.020;16.720;2023-02-22T21:09:06;99748.78;;;6.75;92.23
41515;BME280;27247;48.020;16.720;2023-02-22T21:13:18;99750.00;;;6.63;93.06
41515;BME280;27247;48.020;16.720;2023-02-22T21:17:29;99751.28;;;6.59;94.15
41515;BME280;27247;48.020;16.720;2023-02-22T21:21:40;99756.38;;;6.52;93.23
41515;BME280;27247;48.020;16.720;2023-02-22T21:25:52;99759.41;;;6.39;93.99
41515;BME280;27247;48.020;16.720;2023-02-22T21:30:03;99748.78;;;6.39;94.60
41515;BME280;27247;48.020;16.720;2023-02-22T21:34:14;99750.22;;;6.34;96.07
41515;BME280;27247;48.020;16.720;2023-02-22T21:38:27;99743.16;;;6.43;95.99
41515;BME280;27247;48.020;16.720;2023-02-22T21:42:39;99748.63;;;6.41;96.29
41515;BME280;27247;48.020;16.720;2023-02-22T21:46:49;99745.22;;;6.49;97.37
41515;BME280;27247;48.020;16.720;2023-02-22T21:51:10;99738.63;;;6.53;97.60
41515;BME280;27247;48.020;16.720;2023-02-22T21:55:23;99745.91;;;6.51;97.63
41515;BME280;27247;48.020;16.720;2023-02-22T21:59:33;99731.50;;;6.53;97.54
41515;BME280;27247;48.020;16.720;2023-02-22T22:03:45;99736.66;;;6.55;97.61
41515;BME280;27247;48.020;16.720;2023-02-22T22:07:56;99728.84;;;6.53;97.78
41515;BME280;27247;48.020;16.720;2023-02-22T22:12:06;99732.31;;;6.54;98.10
41515;BME280;27247;48.020;16.720;2023-02-22T22:16:19;99733.63;;;6.50;97.72
41515;BME280;27247;48.020;16.720;2023-02-22T22:20:29;99742.56;;;6.49;98.25
41515;BME280;27247;48.020;16.720;2023-02-22T22:24:39;99729.13;;;6.50;98.28
41515;BME280;27247;48.020;16.720;2023-02-22T22:28:57;99730.81;;;6.51;98.74
41515;BME280;27247;48.020;16.720;2023-02-22T22:33:08;99732.09;;;6.65;98.73
41515;BME280;27247;48.020;16.720;2023-02-22T22:37:20;99729.03;;;6.78;97.87
41515;BME280;27247;48.020;16.720;2023-02-22T22:41:31;99730.03;;;6.59;94.75
41515;BME280;27247;48.020;16.720;2023-02-22T22:45:42;99738.53;;;6.62;94.96
41515;BME280;27247;48.020;16.720;2023-02-22T22:49:53;99742.94;;;6.71;94.31
41515;BME280;27247;48.020;16.720;2023-02-22T22:54:10;99747.03;;;6.48;94.98
41515;BME280;27247;48.020;16.720;2023-02-22T22:58:20;99742.09;;;6.53;94.16
41515;BME280;27247;48.020;16.720;2023-02-22T23:02:31;99743.94;;;6.53;94.05
41515;BME280;27247;48.020;16.720;2023-02-22T23:06:46;99743.78;;;6.54;94.42
41515;BME280;27247;48.020;16.720;2023-02-22T23:11:05;99751.34;;;6.49;94.90
41515;BME280;27247;48.020;16.720;2023-02-22T23:15:18;99750.91;;;6.36;93.54
41515;BME280;27247;48.020;16.720;2023-02-22T23:19:29;99747.94;;;6.39;92.06
41515;BME280;27247;48.020;16.720;2023-02-22T23:23:40;99744.84;;;6.44;94.18
41515;BME280;27247;48.020;16.720;2023-02-22T23:27:52;99751.34;;;6.49;94.03
41515;BME280;27247;48.020;16.720;2023-02-22T23:32:03;99750.28;;;6.42;93.69
41515;BME280;27247;48.020;16.720;2023-02-22T23:36:16;99734.81;;;6.37;95.20
41515;BME280;27247;48.020;16.720;2023-02-22T23:40:27;99736.72;;;6.27;96.03
41515;BME280;27247;48.020;16.720;2023-02-22T23:44:38;99736.59;;;6.19;95.30
41515;BME280;27247;48.020;16.720;2023-02-22T23:48:51;99732.88;;;6.12;97.03
41515;BME280;27247;48.020;16.720;2023-02-22T23:53:02;99730.00;;;6.05;98.40
41515;BME280;27247;48.020;16.720;2023-02-22T23:57:12;99725.81;;;6.03;100.00
